KFYM/FYM METAR and TAF weather

Enter ICAO airport designator
Station Type Date Time Source
KFYM METAR 2021/05/12 01:00 UTC NOAA

KFYM 120100Z AUTO 01008KT 8SM OVC047 17/11 A3012 RMK A01


Station Type Date Time Source
KFYM Decoded METAR 2021/05/12 01:00 UTC NOAA

Station name not available
May 11, 2021 - 09:00 PM EDT / 2021.05.12 0100 UTC
Wind: from the N (010 degrees) at 9 MPH (8 KT):0
Visibility: 8 mile(s):0
Sky conditions: overcast
Temperature: 62 F (17 C)
Dew Point: 51 F (11 C)
Relative Humidity: 67%
Pressure (altimeter): 30.12 in. Hg (1019 hPa)
ob: KFYM 120100Z AUTO 01008KT 8SM OVC047 17/11 A3012 RMK A01
cycle: 1

Station Type Date Time Source
KFYM TAF 2009/08/31 19:45 UTC NOAA

METAR KFYM 311945Z AUTO 01006KT 10SM CLR 26/11 A3009
RMK AO1 T02550111 $

Example: see airport list